sensor_id;sensor_type;location;lat;lon;timestamp;pressure;altitude;pressure_sealevel;temperature;humidity
43115;BME280;28727;50.068;14.452;2023-08-31T00:00:31;98474.31;;;15.43;74.45
43115;BME280;28727;50.068;14.452;2023-08-31T00:03:05;98470.63;;;15.44;73.62
43115;BME280;28727;50.068;14.452;2023-08-31T00:05:41;98470.63;;;15.44;73.76
43115;BME280;28727;50.068;14.452;2023-08-31T00:08:13;98472.72;;;15.42;73.96
43115;BME280;28727;50.068;14.452;2023-08-31T00:10:45;98474.56;;;15.42;74.34
43115;BME280;28727;50.068;14.452;2023-08-31T00:13:19;98475.59;;;15.41;74.33
43115;BME280;28727;50.068;14.452;2023-08-31T00:15:54;98476.03;;;15.38;74.33
43115;BME280;28727;50.068;14.452;2023-08-31T00:18:34;98479.75;;;15.37;74.32
43115;BME280;28727;50.068;14.452;2023-08-31T00:21:07;98481.59;;;15.36;74.16
43115;BME280;28727;50.068;14.452;2023-08-31T00:23:41;98481.19;;;15.33;74.27
43115;BME280;28727;50.068;14.452;2023-08-31T00:26:13;98482.22;;;15.32;73.79
43115;BME280;28727;50.068;14.452;2023-08-31T00:28:47;98477.72;;;15.32;73.71
43115;BME280;28727;50.068;14.452;2023-08-31T00:31:20;98477.72;;;15.32;74.01
43115;BME280;28727;50.068;14.452;2023-08-31T00:33:53;98478.19;;;15.29;74.07
43115;BME280;28727;50.068;14.452;2023-08-31T00:36:32;98482.53;;;15.24;74.51
43115;BME280;28727;50.068;14.452;2023-08-31T00:39:05;98483.56;;;15.23;74.60
43115;BME280;28727;50.068;14.452;2023-08-31T00:41:38;98481.56;;;15.18;74.52
43115;BME280;28727;50.068;14.452;2023-08-31T00:44:10;98478.91;;;15.18;74.36
43115;BME280;28727;50.068;14.452;2023-08-31T00:46:42;98482.38;;;15.19;74.43
43115;BME280;28727;50.068;14.452;2023-08-31T00:49:15;98474.63;;;15.17;74.48
43115;BME280;28727;50.068;14.452;2023-08-31T00:51:47;98471.13;;;15.16;74.53
43115;BME280;28727;50.068;14.452;2023-08-31T00:54:20;98472.16;;;15.15;74.62
43115;BME280;28727;50.068;14.452;2023-08-31T00:56:53;98477.69;;;15.14;74.42
43115;BME280;28727;50.068;14.452;2023-08-31T00:59:26;98487.56;;;15.13;74.51
43115;BME280;28727;50.068;14.452;2023-08-31T01:10:25;98493.25;;;14.92;75.14
43115;BME280;28727;50.068;14.452;2023-08-31T01:13:09;98497.75;;;14.92;75.13
43115;BME280;28727;50.068;14.452;2023-08-31T01:15:46;98502.84;;;14.93;74.78
43115;BME280;28727;50.068;14.452;2023-08-31T01:18:23;98500.00;;;14.95;75.06
43115;BME280;28727;50.068;14.452;2023-08-31T01:24:10;98495.31;;;14.90;74.56
43115;BME280;28727;50.068;14.452;2023-08-31T01:26:46;98503.94;;;14.86;74.57
43115;BME280;28727;50.068;14.452;2023-08-31T01:29:21;98504.78;;;14.80;74.83
43115;BME280;28727;50.068;14.452;2023-08-31T01:31:55;98497.06;;;14.78;75.05
43115;BME280;28727;50.068;14.452;2023-08-31T01:34:27;98504.78;;;14.80;75.03
43115;BME280;28727;50.068;14.452;2023-08-31T01:37:04;98507.44;;;14.80;75.10
43115;BME280;28727;50.068;14.452;2023-08-31T01:39:58;98496.00;;;14.79;75.03
43115;BME280;28727;50.068;14.452;2023-08-31T01:42:42;98509.75;;;14.76;75.32
43115;BME280;28727;50.068;14.452;2023-08-31T01:45:20;98507.28;;;14.74;75.27
43115;BME280;28727;50.068;14.452;2023-08-31T01:47:55;98510.00;;;14.68;75.37
43115;BME280;28727;50.068;14.452;2023-08-31T01:50:27;98514.72;;;14.66;75.21
43115;BME280;28727;50.068;14.452;2023-08-31T01:52:59;98513.09;;;14.65;75.71
43115;BME280;28727;50.068;14.452;2023-08-31T01:55:31;98511.66;;;14.62;75.88
43115;BME280;28727;50.068;14.452;2023-08-31T01:58:04;98513.09;;;14.65;75.51
43115;BME280;28727;50.068;14.452;2023-08-31T02:00:41;98504.31;;;14.64;75.51
43115;BME280;28727;50.068;14.452;2023-08-31T02:03:13;98511.47;;;14.64;75.81
43115;BME280;28727;50.068;14.452;2023-08-31T02:05:46;98514.34;;;14.62;75.91
43115;BME280;28727;50.068;14.452;2023-08-31T02:08:19;98518.84;;;14.62;75.74
43115;BME280;28727;50.068;14.452;2023-08-31T02:10:51;98520.91;;;14.60;75.97
43115;BME280;28727;50.068;14.452;2023-08-31T02:13:27;98517.63;;;14.58;76.55
43115;BME280;28727;50.068;14.452;2023-08-31T02:15:59;98511.94;;;14.54;76.27
43115;BME280;28727;50.068;14.452;2023-08-31T02:18:31;98512.97;;;14.53;76.21
43115;BME280;28727;50.068;14.452;2023-08-31T02:21:03;98511.53;;;14.51;76.37
43115;BME280;28727;50.068;14.452;2023-08-31T02:23:37;98512.19;;;14.46;76.57
43115;BME280;28727;50.068;14.452;2023-08-31T02:26:11;98510.56;;;14.45;76.41
43115;BME280;28727;50.068;14.452;2023-08-31T02:28:43;98516.31;;;14.42;76.50
43115;BME280;28727;50.068;14.452;2023-08-31T02:31:16;98514.28;;;14.38;76.56
43115;BME280;28727;50.068;14.452;2023-08-31T02:33:50;98506.72;;;14.34;76.93
43115;BME280;28727;50.068;14.452;2023-08-31T02:36:22;98506.91;;;14.33;76.70
43115;BME280;28727;50.068;14.452;2023-08-31T02:38:53;98512.44;;;14.31;76.84
43115;BME280;28727;50.068;14.452;2023-08-31T02:41:31;98510.84;;;14.30;76.80
43115;BME280;28727;50.068;14.452;2023-08-31T02:44:04;98514.50;;;14.29;76.72
43115;BME280;28727;50.068;14.452;2023-08-31T02:46:36;98516.16;;;14.30;76.80
43115;BME280;28727;50.068;14.452;2023-08-31T02:49:11;98521.22;;;14.32;76.93
43115;BME280;28727;50.068;14.452;2023-08-31T02:51:42;98510.59;;;14.32;77.06
43115;BME280;28727;50.068;14.452;2023-08-31T02:54:15;98505.72;;;14.29;77.08
43115;BME280;28727;50.068;14.452;2023-08-31T02:56:50;98512.06;;;14.28;77.26
43115;BME280;28727;50.068;14.452;2023-08-31T02:59:22;98507.78;;;14.27;77.31
43115;BME280;28727;50.068;14.452;2023-08-31T03:01:54;98511.69;;;14.24;77.63
43115;BME280;28727;50.068;14.452;2023-08-31T03:04:26;98501.88;;;14.25;77.47
43115;BME280;28727;50.068;14.452;2023-08-31T03:07:03;98501.44;;;14.28;77.27
43115;BME280;28727;50.068;14.452;2023-08-31T03:09:35;98507.13;;;14.31;77.19
43115;BME280;28727;50.068;14.452;2023-08-31T03:12:07;98515.72;;;14.33;77.13
43115;BME280;28727;50.068;14.452;2023-08-31T03:14:42;98512.22;;;14.33;76.69
43115;BME280;28727;50.068;14.452;2023-08-31T03:17:15;98516.72;;;14.39;76.90
43115;BME280;28727;50.068;14.452;2023-08-31T03:19:47;98508.34;;;14.42;76.53
43115;BME280;28727;50.068;14.452;2023-08-31T03:22:19;98508.72;;;14.46;76.49
43115;BME280;28727;50.068;14.452;2023-08-31T03:24:54;98511.75;;;14.49;76.43
43115;BME280;28727;50.068;14.452;2023-08-31T03:27:26;98515.66;;;14.47;76.69
43115;BME280;28727;50.068;14.452;2023-08-31T03:29:58;98519.31;;;14.52;76.35
43115;BME280;28727;50.068;14.452;2023-08-31T03:32:30;98518.66;;;14.57;76.05
43115;BME280;28727;50.068;14.452;2023-08-31T03:35:02;98523.31;;;14.61;75.77
43115;BME280;28727;50.068;14.452;2023-08-31T03:37:36;98533.97;;;14.61;75.31
43115;BME280;28727;50.068;14.452;2023-08-31T03:40:11;98521.50;;;14.62;75.51
43115;BME280;28727;50.068;14.452;2023-08-31T03:42:43;98525.56;;;14.64;75.51
43115;BME280;28727;50.068;14.452;2023-08-31T03:45:16;98531.50;;;14.66;75.70
43115;BME280;28727;50.068;14.452;2023-08-31T03:47:48;98522.47;;;14.67;75.76
43115;BME280;28727;50.068;14.452;2023-08-31T03:50:19;98529.63;;;14.67;75.67
43115;BME280;28727;50.068;14.452;2023-08-31T03:52:51;98536.00;;;14.66;76.07
43115;BME280;28727;50.068;14.452;2023-08-31T03:55:23;98534.94;;;14.67;76.30
43115;BME280;28727;50.068;14.452;2023-08-31T03:57:58;98531.44;;;14.73;76.30
43115;BME280;28727;50.068;14.452;2023-08-31T04:00:31;98529.59;;;14.73;75.86
43115;BME280;28727;50.068;14.452;2023-08-31T04:03:04;98536.34;;;14.76;76.49
43115;BME280;28727;50.068;14.452;2023-08-31T04:05:36;98542.06;;;14.73;77.09
43115;BME280;28727;50.068;14.452;2023-08-31T04:08:13;98539.00;;;14.76;77.22
43115;BME280;28727;50.068;14.452;2023-08-31T04:10:45;98536.69;;;14.80;76.90
43115;BME280;28727;50.068;14.452;2023-08-31T04:13:19;98531.78;;;14.83;76.86
43115;BME280;28727;50.068;14.452;2023-08-31T04:15:52;98540.59;;;14.84;76.84
43115;BME280;28727;50.068;14.452;2023-08-31T04:18:24;98543.00;;;14.85;76.52
43115;BME280;28727;50.068;14.452;2023-08-31T04:21:01;98548.09;;;14.87;76.54
43115;BME280;28727;50.068;14.452;2023-08-31T04:23:35;98571.84;;;14.88;76.27
43115;BME280;28727;50.068;14.452;2023-08-31T04:26:11;98568.34;;;14.88;76.03
43115;BME280;28727;50.068;14.452;2023-08-31T04:28:46;98569.34;;;14.93;76.13
43115;BME280;28727;50.068;14.452;2023-08-31T04:31:18;98569.72;;;14.97;76.05
43115;BME280;28727;50.068;14.452;2023-08-31T04:33:50;98571.13;;;14.99;76.08
43115;BME280;28727;50.068;14.452;2023-08-31T04:36:26;98576.81;;;15.03;76.31
43115;BME280;28727;50.068;14.452;2023-08-31T04:39:03;98583.41;;;15.00;76.66
43115;BME280;28727;50.068;14.452;2023-08-31T04:41:36;98584.81;;;15.03;76.86
43115;BME280;28727;50.068;14.452;2023-08-31T04:44:08;98599.16;;;15.02;77.14
43115;BME280;28727;50.068;14.452;2023-08-31T04:46:40;98598.09;;;15.03;77.42
43115;BME280;28727;50.068;14.452;2023-08-31T04:49:15;98593.59;;;15.03;76.82
43115;BME280;28727;50.068;14.452;2023-08-31T04:51:49;98606.31;;;15.01;76.66
43115;BME280;28727;50.068;14.452;2023-08-31T04:54:21;98609.56;;;15.03;76.74
43115;BME280;28727;50.068;14.452;2023-08-31T04:56:53;98608.34;;;15.06;76.36
43115;BME280;28727;50.068;14.452;2023-08-31T04:59:25;98616.28;;;15.12;76.00
43115;BME280;28727;50.068;14.452;2023-08-31T05:01:57;98626.31;;;15.10;75.96
43115;BME280;28727;50.068;14.452;2023-08-31T05:04:28;98622.81;;;15.10;76.08
43115;BME280;28727;50.068;14.452;2023-08-31T05:07:00;98629.16;;;15.09;76.00
43115;BME280;28727;50.068;14.452;2023-08-31T05:09:32;98634.88;;;15.12;76.21
43115;BME280;28727;50.068;14.452;2023-08-31T05:12:07;98632.81;;;15.14;75.99
43115;BME280;28727;50.068;14.452;2023-08-31T05:14:43;98634.03;;;15.19;75.68
43115;BME280;28727;50.068;14.452;2023-08-31T05:17:17;98633.78;;;15.20;75.85
43115;BME280;28727;50.068;14.452;2023-08-31T05:19:49;98637.50;;;15.19;75.94
43115;BME280;28727;50.068;14.452;2023-08-31T05:22:22;98637.66;;;15.24;77.38
43115;BME280;28727;50.068;14.452;2023-08-31T05:24:54;98646.31;;;15.44;77.85
43115;BME280;28727;50.068;14.452;2023-08-31T05:27:26;98641.75;;;15.76;79.40
43115;BME280;28727;50.068;14.452;2023-08-31T05:29:58;98642.91;;;16.05;76.76
43115;BME280;28727;50.068;14.452;2023-08-31T05:32:30;98647.56;;;16.28;75.27
43115;BME280;28727;50.068;14.452;2023-08-31T05:35:02;98642.59;;;16.50;75.22
43115;BME280;28727;50.068;14.452;2023-08-31T05:37:36;98658.69;;;16.61;73.62
43115;BME280;28727;50.068;14.452;2023-08-31T05:40:09;98657.78;;;16.67;73.33
43115;BME280;28727;50.068;14.452;2023-08-31T05:42:42;98661.13;;;16.63;73.26
43115;BME280;28727;50.068;14.452;2023-08-31T05:45:23;98660.97;;;16.58;73.04
43115;BME280;28727;50.068;14.452;2023-08-31T05:47:55;98655.22;;;16.61;72.87
43115;BME280;28727;50.068;14.452;2023-08-31T05:50:41;98659.31;;;16.57;72.18
43115;BME280;28727;50.068;14.452;2023-08-31T05:53:14;98667.78;;;16.54;72.61
43115;BME280;28727;50.068;14.452;2023-08-31T05:55:46;98667.41;;;16.50;72.27
43115;BME280;28727;50.068;14.452;2023-08-31T05:58:19;98667.31;;;16.57;72.39
43115;BME280;28727;50.068;14.452;2023-08-31T06:00:50;98675.88;;;16.65;72.38
43115;BME280;28727;50.068;14.452;2023-08-31T06:03:22;98675.81;;;16.72;71.99
43115;BME280;28727;50.068;14.452;2023-08-31T06:05:55;98677.84;;;16.88;72.52
43115;BME280;28727;50.068;14.452;2023-08-31T06:08:32;98680.69;;;17.05;71.09
43115;BME280;28727;50.068;14.452;2023-08-31T06:11:04;98689.63;;;17.10;70.82
43115;BME280;28727;50.068;14.452;2023-08-31T06:13:37;98694.16;;;17.10;70.33
43115;BME280;28727;50.068;14.452;2023-08-31T06:16:13;98694.84;;;17.05;70.54
43115;BME280;28727;50.068;14.452;2023-08-31T06:18:45;98690.75;;;17.03;70.70
43115;BME280;28727;50.068;14.452;2023-08-31T06:21:20;98694.72;;;17.00;70.86
43115;BME280;28727;50.068;14.452;2023-08-31T06:23:52;98693.44;;;17.03;70.88
43115;BME280;28727;50.068;14.452;2023-08-31T06:26:24;98700.41;;;17.04;70.80
43115;BME280;28727;50.068;14.452;2023-08-31T06:28:56;98703.66;;;17.06;71.05
43115;BME280;28727;50.068;14.452;2023-08-31T06:31:31;98711.94;;;17.16;70.55
43115;BME280;28727;50.068;14.452;2023-08-31T06:34:04;98712.75;;;17.16;69.88
43115;BME280;28727;50.068;14.452;2023-08-31T06:36:36;98712.66;;;17.23;69.99
43115;BME280;28727;50.068;14.452;2023-08-31T06:39:12;98713.59;;;17.29;69.42
43115;BME280;28727;50.068;14.452;2023-08-31T06:41:47;98715.50;;;17.40;69.34
43115;BME280;28727;50.068;14.452;2023-08-31T06:44:26;98707.41;;;17.58;68.98
43115;BME280;28727;50.068;14.452;2023-08-31T06:46:59;98714.22;;;17.72;68.25
43115;BME280;28727;50.068;14.452;2023-08-31T06:49:31;98713.53;;;17.77;68.28
43115;BME280;28727;50.068;14.452;2023-08-31T06:52:04;98718.28;;;17.86;68.38
43115;BME280;28727;50.068;14.452;2023-08-31T06:54:59;98718.53;;;18.08;68.00
43115;BME280;28727;50.068;14.452;2023-08-31T06:57:31;98720.94;;;18.33;67.56
43115;BME280;28727;50.068;14.452;2023-08-31T07:00:06;98716.19;;;18.47;67.06
43115;BME280;28727;50.068;14.452;2023-08-31T07:02:40;98716.53;;;18.62;65.80
43115;BME280;28727;50.068;14.452;2023-08-31T07:05:14;98723.69;;;18.85;64.94
43115;BME280;28727;50.068;14.452;2023-08-31T07:07:48;98724.63;;;19.18;64.06
43115;BME280;28727;50.068;14.452;2023-08-31T07:10:23;98719.50;;;19.62;62.90
43115;BME280;28727;50.068;14.452;2023-08-31T07:12:55;98729.38;;;19.73;62.25
43115;BME280;28727;50.068;14.452;2023-08-31T07:15:30;98730.91;;;20.02;60.68
43115;BME280;28727;50.068;14.452;2023-08-31T07:18:03;98733.53;;;20.53;59.58
43115;BME280;28727;50.068;14.452;2023-08-31T07:20:35;98726.81;;;20.94;57.07
43115;BME280;28727;50.068;14.452;2023-08-31T07:23:07;98733.38;;;21.24;56.73
43115;BME280;28727;50.068;14.452;2023-08-31T07:25:39;98736.53;;;21.75;55.58
43115;BME280;28727;50.068;14.452;2023-08-31T07:28:11;98728.06;;;22.25;53.76
43115;BME280;28727;50.068;14.452;2023-08-31T07:30:43;98726.28;;;22.41;52.10
43115;BME280;28727;50.068;14.452;2023-08-31T07:33:15;98727.41;;;22.50;51.80
43115;BME280;28727;50.068;14.452;2023-08-31T07:36:02;98728.63;;;22.74;49.76
43115;BME280;28727;50.068;14.452;2023-08-31T07:38:35;98731.69;;;23.03;48.12
43115;BME280;28727;50.068;14.452;2023-08-31T07:41:07;98730.03;;;22.87;48.75
43115;BME280;28727;50.068;14.452;2023-08-31T07:43:39;98735.63;;;22.75;48.06
43115;BME280;28727;50.068;14.452;2023-08-31T07:46:25;98744.81;;;22.79;47.79
43115;BME280;28727;50.068;14.452;2023-08-31T07:49:00;98737.31;;;22.92;46.52
43115;BME280;28727;50.068;14.452;2023-08-31T07:51:32;98745.72;;;23.10;45.64
43115;BME280;28727;50.068;14.452;2023-08-31T07:54:04;98760.09;;;23.41;45.55
43115;BME280;28727;50.068;14.452;2023-08-31T07:56:36;98755.31;;;23.63;44.73
43115;BME280;28727;50.068;14.452;2023-08-31T07:59:07;98747.00;;;23.85;44.66
43115;BME280;28727;50.068;14.452;2023-08-31T08:01:40;98761.53;;;23.99;44.13
43115;BME280;28727;50.068;14.452;2023-08-31T08:04:18;98752.38;;;24.00;43.36
43115;BME280;28727;50.068;14.452;2023-08-31T08:06:54;98753.44;;;24.04;43.39
43115;BME280;28727;50.068;14.452;2023-08-31T08:09:26;98763.19;;;24.21;43.35
43115;BME280;28727;50.068;14.452;2023-08-31T08:11:58;98767.75;;;24.35;42.68
43115;BME280;28727;50.068;14.452;2023-08-31T08:14:30;98775.75;;;24.76;42.70
43115;BME280;28727;50.068;14.452;2023-08-31T08:17:01;98766.53;;;25.02;41.50
43115;BME280;28727;50.068;14.452;2023-08-31T08:19:34;98777.94;;;24.69;41.37
43115;BME280;28727;50.068;14.452;2023-08-31T08:22:06;98777.13;;;24.68;40.64
43115;BME280;28727;50.068;14.452;2023-08-31T08:24:38;98775.44;;;24.98;40.89
43115;BME280;28727;50.068;14.452;2023-08-31T08:27:14;98780.81;;;25.13;40.64
43115;BME280;28727;50.068;14.452;2023-08-31T08:29:46;98781.03;;;25.16;39.14
43115;BME280;28727;50.068;14.452;2023-08-31T08:32:18;98779.91;;;25.33;39.20
43115;BME280;28727;50.068;14.452;2023-08-31T08:34:50;98782.47;;;25.53;38.22
43115;BME280;28727;50.068;14.452;2023-08-31T08:37:22;98779.41;;;25.69;38.06
43115;BME280;28727;50.068;14.452;2023-08-31T08:39:55;98770.91;;;25.86;38.34
43115;BME280;28727;50.068;14.452;2023-08-31T08:42:30;98777.69;;;26.18;37.88
43115;BME280;28727;50.068;14.452;2023-08-31T08:45:14;98771.34;;;26.03;36.17
43115;BME280;28727;50.068;14.452;2023-08-31T08:47:50;98773.72;;;25.71;36.18
43115;BME280;28727;50.068;14.452;2023-08-31T08:50:25;98769.34;;;25.31;36.98
43115;BME280;28727;50.068;14.452;2023-08-31T08:53:00;98780.69;;;25.33;37.26
43115;BME280;28727;50.068;14.452;2023-08-31T08:55:34;98776.66;;;25.31;38.36
43115;BME280;28727;50.068;14.452;2023-08-31T08:58:08;98786.41;;;25.26;37.77
43115;BME280;28727;50.068;14.452;2023-08-31T09:00:40;98777.19;;;25.33;37.31
43115;BME280;28727;50.068;14.452;2023-08-31T09:03:13;98774.50;;;25.33;38.41
43115;BME280;28727;50.068;14.452;2023-08-31T09:05:45;98780.69;;;25.38;38.15
43115;BME280;28727;50.068;14.452;2023-08-31T09:08:17;98780.13;;;25.85;37.35
43115;BME280;28727;50.068;14.452;2023-08-31T09:10:59;98772.47;;;25.92;37.34
43115;BME280;28727;50.068;14.452;2023-08-31T09:13:32;98768.94;;;25.58;37.55
43115;BME280;28727;50.068;14.452;2023-08-31T09:16:05;98777.34;;;25.56;38.11
43115;BME280;28727;50.068;14.452;2023-08-31T09:18:37;98770.88;;;25.47;37.14
43115;BME280;28727;50.068;14.452;2023-08-31T09:21:11;98779.03;;;25.42;37.51
43115;BME280;28727;50.068;14.452;2023-08-31T09:23:58;98774.16;;;25.39;37.56
43115;BME280;28727;50.068;14.452;2023-08-31T09:26:37;98780.56;;;25.09;37.28
43115;BME280;28727;50.068;14.452;2023-08-31T09:29:10;98787.66;;;24.70;37.58
43115;BME280;28727;50.068;14.452;2023-08-31T09:31:43;98792.31;;;24.49;37.99
43115;BME280;28727;50.068;14.452;2023-08-31T09:34:17;98800.94;;;24.46;38.37
43115;BME280;28727;50.068;14.452;2023-08-31T09:36:49;98797.16;;;24.52;38.53
43115;BME280;28727;50.068;14.452;2023-08-31T09:39:24;98794.13;;;24.79;38.26
43115;BME280;28727;50.068;14.452;2023-08-31T09:41:56;98799.78;;;24.87;38.40
43115;BME280;28727;50.068;14.452;2023-08-31T09:44:28;98792.88;;;25.31;37.62
43115;BME280;28727;50.068;14.452;2023-08-31T09:47:00;98795.69;;;25.64;37.13
43115;BME280;28727;50.068;14.452;2023-08-31T09:49:32;98800.63;;;25.96;37.05
43115;BME280;28727;50.068;14.452;2023-08-31T09:52:05;98803.72;;;26.14;36.17
43115;BME280;28727;50.068;14.452;2023-08-31T09:54:38;98807.47;;;26.18;35.00
43115;BME280;28727;50.068;14.452;2023-08-31T09:57:13;98803.41;;;25.81;35.18
43115;BME280;28727;50.068;14.452;2023-08-31T09:59:47;98804.56;;;25.70;34.76
43115;BME280;28727;50.068;14.452;2023-08-31T10:02:20;98792.06;;;25.30;34.56
43115;BME280;28727;50.068;14.452;2023-08-31T10:04:52;98803.91;;;24.55;35.39
43115;BME280;28727;50.068;14.452;2023-08-31T10:07:25;98812.00;;;24.04;35.65
43115;BME280;28727;50.068;14.452;2023-08-31T10:09:59;98810.63;;;23.66;37.76
43115;BME280;28727;50.068;14.452;2023-08-31T10:12:32;98808.06;;;23.29;38.38
43115;BME280;28727;50.068;14.452;2023-08-31T10:15:06;98821.78;;;23.22;39.59
43115;BME280;28727;50.068;14.452;2023-08-31T10:17:42;98819.25;;;23.01;40.20
43115;BME280;28727;50.068;14.452;2023-08-31T10:20:16;98819.53;;;23.04;40.11
43115;BME280;28727;50.068;14.452;2023-08-31T10:22:49;98827.06;;;22.97;38.26
43115;BME280;28727;50.068;14.452;2023-08-31T10:25:24;98818.94;;;22.92;38.58
43115;BME280;28727;50.068;14.452;2023-08-31T10:27:58;98821.16;;;23.05;38.37
43115;BME280;28727;50.068;14.452;2023-08-31T10:30:30;98816.91;;;23.14;38.47
43115;BME280;28727;50.068;14.452;2023-08-31T10:33:28;98821.78;;;23.27;36.95
43115;BME280;28727;50.068;14.452;2023-08-31T10:36:02;98819.66;;;23.30;36.83
43115;BME280;28727;50.068;14.452;2023-08-31T10:38:34;98823.66;;;23.27;36.86
43115;BME280;28727;50.068;14.452;2023-08-31T10:43:53;98826.25;;;23.59;37.12
43115;BME280;28727;50.068;14.452;2023-08-31T10:46:36;98817.41;;;23.94;35.73
43115;BME280;28727;50.068;14.452;2023-08-31T10:49:21;98817.09;;;23.80;35.42
43115;BME280;28727;50.068;14.452;2023-08-31T10:51:56;98819.47;;;23.46;36.00
43115;BME280;28727;50.068;14.452;2023-08-31T10:54:32;98805.47;;;23.54;36.67
43115;BME280;28727;50.068;14.452;2023-08-31T10:57:11;98808.50;;;23.83;35.56
43115;BME280;28727;50.068;14.452;2023-08-31T10:59:56;98813.13;;;24.28;35.31
43115;BME280;28727;50.068;14.452;2023-08-31T11:02:37;98800.66;;;24.58;37.22
43115;BME280;28727;50.068;14.452;2023-08-31T11:05:14;98804.69;;;24.70;35.32
43115;BME280;28727;50.068;14.452;2023-08-31T11:07:48;98825.47;;;24.75;35.20
43115;BME280;28727;50.068;14.452;2023-08-31T11:10:26;98820.63;;;24.72;35.33
43115;BME280;28727;50.068;14.452;2023-08-31T11:13:16;98819.50;;;24.88;34.70
43115;BME280;28727;50.068;14.452;2023-08-31T11:15:49;98804.31;;;25.12;33.99
43115;BME280;28727;50.068;14.452;2023-08-31T11:18:23;98803.69;;;25.31;32.80
43115;BME280;28727;50.068;14.452;2023-08-31T11:20:56;98814.78;;;25.29;34.04
43115;BME280;28727;50.068;14.452;2023-08-31T11:23:35;98828.44;;;24.78;34.30
43115;BME280;28727;50.068;14.452;2023-08-31T11:26:07;98825.53;;;24.24;34.71
43115;BME280;28727;50.068;14.452;2023-08-31T11:28:43;98831.69;;;23.94;35.00
43115;BME280;28727;50.068;14.452;2023-08-31T11:31:23;98834.88;;;23.56;36.08
43115;BME280;28727;50.068;14.452;2023-08-31T11:33:55;98839.28;;;23.20;37.41
43115;BME280;28727;50.068;14.452;2023-08-31T11:36:33;98842.72;;;23.05;38.37
43115;BME280;28727;50.068;14.452;2023-08-31T11:39:05;98831.88;;;23.57;37.85
43115;BME280;28727;50.068;14.452;2023-08-31T11:41:39;98830.34;;;23.87;37.74
43115;BME280;28727;50.068;14.452;2023-08-31T11:44:15;98820.38;;;23.97;37.26
43115;BME280;28727;50.068;14.452;2023-08-31T11:46:49;98822.03;;;24.34;36.35
43115;BME280;28727;50.068;14.452;2023-08-31T11:49:22;98817.41;;;24.60;35.78
43115;BME280;28727;50.068;14.452;2023-08-31T11:51:54;98814.09;;;24.88;35.85
43115;BME280;28727;50.068;14.452;2023-08-31T11:54:29;98820.28;;;25.09;35.95
43115;BME280;28727;50.068;14.452;2023-08-31T11:57:01;98818.53;;;25.33;34.55
43115;BME280;28727;50.068;14.452;2023-08-31T11:59:34;98812.53;;;25.56;35.13
43115;BME280;28727;50.068;14.452;2023-08-31T12:02:09;98825.00;;;25.42;34.92
43115;BME280;28727;50.068;14.452;2023-08-31T12:04:45;98823.19;;;25.22;35.93
43115;BME280;28727;50.068;14.452;2023-08-31T12:07:19;98815.25;;;25.46;35.16
43115;BME280;28727;50.068;14.452;2023-08-31T12:10:01;98816.59;;;25.49;35.54
43115;BME280;28727;50.068;14.452;2023-08-31T12:12:33;98814.75;;;25.34;35.61
43115;BME280;28727;50.068;14.452;2023-08-31T12:15:10;98808.38;;;25.15;35.70
43115;BME280;28727;50.068;14.452;2023-08-31T12:17:42;98815.66;;;25.14;35.32
43115;BME280;28727;50.068;14.452;2023-08-31T12:20:16;98811.06;;;25.15;35.76
43115;BME280;28727;50.068;14.452;2023-08-31T12:22:48;98817.28;;;25.10;35.74
43115;BME280;28727;50.068;14.452;2023-08-31T12:25:23;98811.38;;;24.98;35.97
43115;BME280;28727;50.068;14.452;2023-08-31T12:27:55;98826.28;;;24.85;36.75
43115;BME280;28727;50.068;14.452;2023-08-31T12:30:27;98831.97;;;24.69;34.52
43115;BME280;28727;50.068;14.452;2023-08-31T12:32:58;98825.81;;;24.23;34.42
43115;BME280;28727;50.068;14.452;2023-08-31T12:35:33;98820.94;;;24.35;34.59
43115;BME280;28727;50.068;14.452;2023-08-31T12:38:05;98827.94;;;24.51;33.14
43115;BME280;28727;50.068;14.452;2023-08-31T12:40:37;98826.88;;;24.47;33.11
43115;BME280;28727;50.068;14.452;2023-08-31T12:43:12;98825.50;;;24.60;33.72
43115;BME280;28727;50.068;14.452;2023-08-31T12:45:47;98814.72;;;24.60;33.50
43115;BME280;28727;50.068;14.452;2023-08-31T12:48:19;98818.50;;;24.54;34.05
43115;BME280;28727;50.068;14.452;2023-08-31T12:50:51;98817.94;;;24.67;34.16
43115;BME280;28727;50.068;14.452;2023-08-31T12:53:28;98816.34;;;24.61;32.92
43115;BME280;28727;50.068;14.452;2023-08-31T12:56:01;98818.97;;;24.81;33.79
43115;BME280;28727;50.068;14.452;2023-08-31T12:58:33;98820.88;;;24.75;33.17
43115;BME280;28727;50.068;14.452;2023-08-31T13:01:04;98817.91;;;24.77;33.33
43115;BME280;28727;50.068;14.452;2023-08-31T13:03:36;98811.44;;;24.78;32.83
43115;BME280;28727;50.068;14.452;2023-08-31T13:06:11;98823.88;;;24.69;32.22
43115;BME280;28727;50.068;14.452;2023-08-31T13:08:44;98812.03;;;24.55;32.38
43115;BME280;28727;50.068;14.452;2023-08-31T13:11:16;98807.97;;;24.62;32.98
43115;BME280;28727;50.068;14.452;2023-08-31T13:13:55;98811.72;;;24.66;32.76
43115;BME280;28727;50.068;14.452;2023-08-31T13:16:30;98823.06;;;24.63;31.87
43115;BME280;28727;50.068;14.452;2023-08-31T13:19:07;98814.16;;;24.63;32.98
43115;BME280;28727;50.068;14.452;2023-08-31T13:21:39;98813.63;;;24.51;32.83
43115;BME280;28727;50.068;14.452;2023-08-31T13:24:10;98823.13;;;24.38;33.28
43115;BME280;28727;50.068;14.452;2023-08-31T13:26:45;98820.69;;;24.36;32.68
43115;BME280;28727;50.068;14.452;2023-08-31T13:29:19;98806.63;;;24.44;33.45
43115;BME280;28727;50.068;14.452;2023-08-31T13:31:51;98809.34;;;24.29;33.72
43115;BME280;28727;50.068;14.452;2023-08-31T13:34:23;98831.16;;;23.92;34.60
43115;BME280;28727;50.068;14.452;2023-08-31T13:36:58;98836.50;;;23.62;36.04
43115;BME280;28727;50.068;14.452;2023-08-31T13:39:30;98848.88;;;23.53;35.56